createdAt,value
2019-03-19T00:00:27.997Z,6.60
2019-03-19T00:04:28.929Z,6.40
2019-03-19T00:08:30.124Z,6.20
2019-03-19T00:12:30.994Z,5.80
2019-03-19T00:16:31.880Z,6.20
2019-03-19T00:20:32.846Z,6.00
2019-03-19T00:24:33.988Z,6.10
2019-03-19T00:28:34.979Z,6.00
2019-03-19T00:32:35.988Z,6.10
2019-03-19T00:36:36.859Z,5.90
2019-03-19T00:40:37.740Z,5.30
2019-03-19T00:44:38.603Z,5.80
2019-03-19T00:48:39.468Z,6.20
2019-03-19T00:52:40.431Z,5.80
2019-03-19T00:56:41.284Z,5.60
2019-03-19T01:00:42.297Z,4.90
2019-03-19T01:04:43.329Z,5.60
2019-03-19T01:08:44.213Z,5.50
2019-03-19T01:12:45.204Z,5.50
2019-03-19T01:16:46.170Z,5.70
2019-03-19T01:20:47.044Z,6.00
2019-03-19T01:24:47.908Z,5.80
2019-03-19T01:28:48.918Z,6.00
2019-03-19T01:32:49.864Z,5.70
2019-03-19T01:36:50.943Z,5.70
2019-03-19T01:40:51.831Z,5.30
2019-03-19T01:44:52.681Z,5.50
2019-03-19T01:48:53.559Z,5.70
2019-03-19T01:52:54.410Z,5.60
2019-03-19T01:56:55.420Z,5.00
2019-03-19T02:00:56.298Z,5.10
2019-03-19T02:04:57.171Z,4.90
2019-03-19T02:08:58.038Z,4.50
2019-03-19T02:12:59.012Z,4.70
2019-03-19T02:16:59.868Z,5.00
2019-03-19T02:21:00.766Z,5.00
2019-03-19T02:25:02.005Z,4.80
2019-03-19T02:29:03.062Z,5.20
2019-03-19T02:33:04.089Z,5.20
2019-03-19T02:37:04.972Z,4.90
2019-03-19T02:41:05.841Z,4.30
2019-03-19T02:45:08.695Z,3.90
2019-03-19T02:49:09.573Z,4.90
2019-03-19T02:53:10.558Z,5.10
2019-03-19T02:57:11.540Z,5.10
2019-03-19T03:01:12.539Z,5.20
2019-03-19T03:05:17.206Z,5.00
2019-03-19T03:09:18.108Z,5.00
2019-03-19T03:13:19.006Z,4.50
2019-03-19T03:17:20.987Z,4.80
2019-03-19T03:21:22.151Z,4.90
2019-03-19T03:25:23.037Z,5.20
2019-03-19T03:29:24.062Z,5.40
2019-03-19T03:33:24.996Z,5.30
2019-03-19T03:37:25.942Z,5.20
2019-03-19T03:41:26.924Z,5.30
2019-03-19T03:45:27.834Z,5.20
2019-03-19T03:49:28.711Z,5.10
2019-03-19T03:53:29.568Z,4.40
2019-03-19T03:57:30.413Z,4.30
2019-03-19T04:01:31.411Z,4.40
2019-03-19T04:05:32.309Z,4.10
2019-03-19T04:09:33.301Z,4.50
2019-03-19T04:13:34.362Z,4.20
2019-03-19T04:17:35.237Z,4.70
2019-03-19T04:21:36.213Z,5.10
2019-03-19T04:25:37.313Z,5.10
2019-03-19T04:29:38.270Z,5.00
2019-03-19T04:33:39.360Z,5.00
2019-03-19T04:37:40.251Z,4.80
2019-03-19T04:41:41.161Z,4.80
2019-03-19T04:45:42.132Z,4.70
2019-03-19T04:49:43.110Z,4.70
2019-03-19T04:53:44.090Z,4.70
2019-03-19T04:57:44.988Z,4.60
2019-03-19T05:01:45.895Z,3.50
2019-03-19T05:05:46.788Z,4.30
2019-03-19T05:09:47.766Z,4.60
2019-03-19T05:13:48.847Z,4.80
2019-03-19T05:17:49.826Z,4.70
2019-03-19T05:21:50.751Z,4.40
2019-03-19T05:25:53.030Z,3.70
2019-03-19T05:29:53.915Z,3.40
2019-03-19T05:33:54.859Z,3.90
2019-03-19T05:37:55.831Z,4.20
2019-03-19T05:41:56.817Z,4.50
2019-03-19T05:45:57.802Z,3.50
2019-03-19T05:49:58.671Z,3.60
2019-03-19T05:53:59.596Z,4.20
2019-03-19T06:02:09.118Z,4.40
2019-03-19T06:06:09.997Z,4.40
2019-03-19T06:10:12.093Z,3.90
2019-03-19T06:14:12.991Z,4.00
2019-03-19T06:18:14.237Z,4.80
2019-03-19T06:22:15.327Z,5.30
2019-03-19T06:26:16.470Z,5.40
2019-03-19T06:30:21.822Z,5.40
2019-03-19T06:34:22.705Z,5.80
2019-03-19T06:38:23.659Z,6.00
2019-03-19T06:42:25.355Z,6.30
2019-03-19T06:46:26.686Z,6.60
2019-03-19T06:50:28.242Z,7.00
2019-03-19T06:54:29.414Z,7.30
2019-03-19T06:58:30.285Z,7.80
2019-03-19T07:02:31.194Z,7.80
2019-03-19T07:06:32.101Z,8.00
2019-03-19T07:10:33.020Z,8.10
2019-03-19T07:14:33.897Z,8.70
2019-03-19T07:18:34.871Z,9.30
2019-03-19T07:22:35.764Z,9.70
2019-03-19T07:26:36.646Z,10.20
2019-03-19T07:30:37.871Z,10.40
2019-03-19T07:34:38.837Z,10.90
2019-03-19T07:38:39.734Z,11.10
2019-03-19T07:42:40.645Z,11.60
2019-03-19T07:46:41.726Z,10.40
2019-03-19T07:50:42.590Z,10.70
2019-03-19T07:54:43.488Z,11.00
2019-03-19T07:58:45.619Z,10.60
2019-03-19T08:02:46.944Z,11.70
2019-03-19T08:06:47.836Z,12.30
2019-03-19T08:10:49.423Z,11.20
2019-03-19T08:14:50.358Z,10.10
2019-03-19T08:18:51.260Z,10.30
2019-03-19T08:22:52.148Z,10.00
2019-03-19T08:26:53.585Z,9.30
2019-03-19T08:30:54.566Z,9.20
2019-03-19T08:34:55.525Z,10.10
2019-03-19T08:38:56.430Z,10.90
2019-03-19T08:42:58.261Z,10.60
2019-03-19T08:46:59.505Z,9.10
2019-03-19T08:51:00.379Z,10.40
2019-03-19T08:55:01.277Z,9.40
2019-03-19T08:59:06.009Z,10.80
2019-03-19T09:03:05.250Z,9.40
2019-03-19T09:07:06.155Z,9.50
2019-03-19T09:11:07.033Z,9.70
2019-03-19T09:15:10.336Z,9.40
2019-03-19T09:19:11.197Z,9.50
2019-03-19T09:23:12.184Z,8.60
2019-03-19T09:27:13.304Z,9.70
2019-03-19T09:31:14.207Z,9.40
2019-03-19T09:35:17.457Z,10.10
2019-03-19T09:39:18.349Z,10.70
2019-03-19T09:43:19.230Z,11.00
2019-03-19T09:47:20.239Z,10.80
2019-03-19T09:51:21.128Z,11.90
2019-03-19T09:55:22.222Z,11.40
2019-03-19T09:59:27.069Z,10.70
2019-03-19T10:03:26.044Z,10.60
2019-03-19T10:07:26.925Z,11.00
2019-03-19T10:11:27.880Z,11.50
2019-03-19T10:15:28.771Z,11.80
2019-03-19T10:19:29.664Z,9.90
2019-03-19T10:23:30.535Z,10.40
2019-03-19T10:27:31.547Z,10.80
2019-03-19T10:31:32.419Z,11.30
2019-03-19T10:35:33.318Z,11.50
2019-03-19T10:39:34.325Z,11.80
2019-03-19T10:43:35.299Z,11.40
2019-03-19T10:47:36.164Z,11.40
2019-03-19T10:51:37.058Z,13.00
2019-03-19T10:55:38.067Z,11.50
2019-03-19T10:59:48.795Z,12.20
2019-03-19T11:03:41.870Z,11.90
2019-03-19T11:07:42.767Z,11.00
2019-03-19T11:11:43.679Z,11.90
2019-03-19T11:15:44.660Z,11.10
2019-03-19T11:19:45.509Z,10.70
2019-03-19T11:23:46.635Z,10.60
2019-03-19T11:27:48.994Z,11.70
2019-03-19T11:31:49.959Z,13.30
2019-03-19T11:35:50.867Z,13.50
2019-03-19T11:39:51.768Z,13.10
2019-03-19T11:43:52.659Z,13.80
2019-03-19T11:47:53.530Z,13.10
2019-03-19T11:51:54.503Z,11.90
2019-03-19T11:55:55.382Z,13.60
2019-03-19T11:59:56.255Z,12.50
2019-03-19T12:03:57.122Z,13.30
2019-03-19T12:07:58.016Z,15.00
2019-03-19T12:11:59.207Z,14.60
2019-03-19T12:16:00.084Z,15.40
2019-03-19T12:20:01.131Z,15.90
2019-03-19T12:24:02.154Z,15.20
2019-03-19T12:28:04.030Z,16.70
2019-03-19T12:32:05.024Z,16.30
2019-03-19T12:36:05.889Z,15.30
2019-03-19T12:40:09.699Z,16.10
2019-03-19T12:44:10.749Z,14.40
2019-03-19T12:48:12.001Z,11.60
2019-03-19T12:52:12.983Z,12.40
2019-03-19T12:56:14.159Z,10.80
2019-03-19T13:00:21.166Z,10.70
2019-03-19T13:04:22.058Z,11.70
2019-03-19T13:08:22.970Z,12.70
2019-03-19T13:12:24.031Z,13.80
2019-03-19T13:16:24.876Z,16.10
2019-03-19T13:20:25.872Z,17.30
2019-03-19T13:24:26.743Z,17.80
2019-03-19T13:28:27.598Z,17.30
2019-03-19T13:32:28.537Z,18.10
2019-03-19T13:36:29.559Z,18.20
2019-03-19T13:40:30.449Z,17.90
2019-03-19T13:44:31.336Z,18.90
2019-03-19T13:48:32.336Z,19.70
2019-03-19T13:52:33.231Z,18.20
2019-03-19T13:56:34.124Z,17.80
2019-03-19T14:00:35.216Z,19.20
2019-03-19T14:04:36.121Z,19.90
2019-03-19T14:08:37.027Z,19.10
2019-03-19T14:12:38.037Z,20.10
2019-03-19T14:16:38.909Z,20.30
2019-03-19T14:20:39.962Z,20.00
2019-03-19T14:24:40.857Z,20.00
2019-03-19T14:28:41.866Z,19.30
2019-03-19T14:32:44.276Z,18.10
2019-03-19T14:36:47.167Z,18.80
2019-03-19T14:40:48.116Z,18.80
2019-03-19T14:44:49.032Z,17.40
2019-03-19T14:48:51.941Z,17.70
2019-03-19T14:52:53.083Z,18.00
2019-03-19T14:56:54.087Z,18.60
2019-03-19T15:00:55.207Z,16.80
2019-03-19T15:04:56.082Z,15.10
2019-03-19T15:08:56.976Z,15.20
2019-03-19T15:12:57.890Z,13.70
2019-03-19T15:17:04.859Z,14.00
2019-03-19T15:21:01.659Z,13.20
2019-03-19T15:25:04.672Z,13.40
2019-03-19T15:29:05.551Z,14.00
2019-03-19T15:33:06.600Z,14.30
2019-03-19T15:37:07.656Z,14.20
2019-03-19T15:41:08.615Z,14.40
2019-03-19T15:45:12.396Z,14.30
2019-03-19T15:49:13.286Z,14.00
2019-03-19T15:53:14.248Z,13.70
2019-03-19T15:57:15.231Z,13.70
2019-03-19T16:01:17.056Z,13.70
2019-03-19T16:05:18.329Z,14.70
2019-03-19T16:09:19.307Z,15.00
2019-03-19T16:13:20.225Z,15.10
2019-03-19T16:17:21.124Z,14.00
2019-03-19T16:21:23.780Z,13.70
2019-03-19T16:25:25.431Z,13.70
2019-03-19T16:29:26.400Z,13.30
2019-03-19T16:33:27.401Z,13.40
2019-03-19T16:37:28.454Z,13.40
2019-03-19T16:41:30.966Z,13.00
2019-03-19T16:45:31.961Z,13.00
2019-03-19T16:49:33.132Z,13.60
2019-03-19T16:53:34.042Z,13.10
2019-03-19T16:57:35.288Z,14.10
2019-03-19T17:01:36.185Z,13.40
2019-03-19T17:05:37.194Z,13.20
2019-03-19T17:09:38.089Z,13.80
2019-03-19T17:13:39.220Z,13.70
2019-03-19T17:17:40.395Z,13.20
2019-03-19T17:21:41.269Z,12.90
2019-03-19T17:25:42.263Z,12.90
2019-03-19T17:29:43.298Z,13.40
2019-03-19T17:33:44.267Z,13.00
2019-03-19T17:37:45.224Z,13.00
2019-03-19T17:41:46.115Z,13.20
2019-03-19T17:45:47.092Z,13.20
2019-03-19T17:49:48.014Z,12.20
2019-03-19T17:53:48.987Z,12.50
2019-03-19T17:57:50.061Z,12.40
2019-03-19T18:01:51.146Z,12.10
2019-03-19T18:05:52.079Z,11.90
2019-03-19T18:09:52.969Z,11.90
2019-03-19T18:13:53.860Z,11.70
2019-03-19T18:17:54.856Z,11.50
2019-03-19T18:21:55.834Z,11.40
2019-03-19T18:25:56.766Z,11.20
2019-03-19T18:29:57.750Z,10.50
2019-03-19T18:34:09.659Z,10.70
2019-03-19T18:38:01.514Z,10.00
2019-03-19T18:42:02.540Z,10.20
2019-03-19T18:46:03.590Z,10.50
2019-03-19T18:50:10.487Z,10.40
2019-03-19T18:54:11.499Z,9.80
2019-03-19T18:58:12.390Z,9.80
2019-03-19T19:02:13.298Z,9.30
2019-03-19T19:06:14.298Z,9.60
2019-03-19T19:10:16.171Z,9.50
2019-03-19T19:14:17.144Z,9.80
2019-03-19T19:18:18.055Z,9.80
2019-03-19T19:22:19.020Z,9.60
2019-03-19T19:26:19.879Z,9.70
2019-03-19T19:30:22.189Z,9.60
2019-03-19T19:34:23.108Z,9.30
2019-03-19T19:38:24.020Z,9.40
2019-03-19T19:42:24.995Z,9.20
2019-03-19T19:46:25.869Z,9.00
2019-03-19T19:50:26.772Z,8.90
2019-03-19T19:54:27.670Z,8.90
2019-03-19T19:58:28.805Z,8.90
2019-03-19T20:02:29.699Z,8.70
2019-03-19T20:06:30.573Z,8.40
2019-03-19T20:10:31.474Z,8.60
2019-03-19T20:14:32.477Z,8.60
2019-03-19T20:18:33.478Z,8.50
2019-03-19T20:22:34.543Z,8.40
2019-03-19T20:26:35.628Z,8.30
2019-03-19T20:30:36.623Z,8.20
2019-03-19T20:34:37.528Z,8.00
2019-03-19T20:38:38.519Z,8.00
2019-03-19T20:42:39.838Z,8.00
2019-03-19T20:46:41.062Z,7.70
2019-03-19T20:50:42.779Z,7.80
2019-03-19T20:54:43.730Z,7.70
2019-03-19T20:58:44.733Z,7.50
2019-03-19T21:02:45.728Z,7.40
2019-03-19T21:06:46.752Z,7.50
2019-03-19T21:10:47.754Z,7.30
2019-03-19T21:14:48.634Z,7.40
2019-03-19T21:18:49.625Z,7.10
2019-03-19T21:22:50.634Z,7.00
2019-03-19T21:26:51.678Z,7.50
2019-03-19T21:30:52.562Z,7.60
2019-03-19T21:34:53.612Z,7.40
2019-03-19T21:38:54.584Z,7.30
2019-03-19T21:42:56.002Z,7.40
2019-03-19T21:46:56.946Z,7.20
2019-03-19T21:50:57.819Z,7.10
2019-03-19T21:54:58.783Z,7.00
2019-03-19T21:58:59.754Z,7.00
2019-03-19T22:03:00.639Z,6.90
2019-03-19T22:07:01.532Z,6.80
2019-03-19T22:11:02.622Z,6.40
2019-03-19T22:15:09.326Z,6.20
2019-03-19T22:19:10.288Z,6.30
2019-03-19T22:23:11.184Z,6.50
2019-03-19T22:27:12.063Z,6.00
2019-03-19T22:31:12.993Z,6.60
2019-03-19T22:35:14.103Z,6.70
2019-03-19T22:39:14.954Z,6.70
2019-03-19T22:43:15.833Z,6.40
2019-03-19T22:47:16.708Z,6.20
2019-03-19T22:51:17.598Z,5.60
2019-03-19T22:55:28.511Z,6.10
2019-03-19T22:59:23.475Z,6.00
2019-03-19T23:03:24.428Z,6.30
2019-03-19T23:07:25.451Z,6.60
2019-03-19T23:11:26.439Z,6.70
2019-03-19T23:15:27.556Z,6.40
2019-03-19T23:19:28.533Z,6.40
2019-03-19T23:23:29.451Z,6.10
2019-03-19T23:27:30.320Z,6.00
2019-03-19T23:31:31.276Z,5.70
2019-03-19T23:35:32.286Z,5.80
2019-03-19T23:39:33.588Z,6.20
2019-03-19T23:43:34.571Z,5.40
2019-03-19T23:47:35.448Z,5.70
2019-03-19T23:51:36.406Z,5.80
2019-03-19T23:55:37.275Z,6.00
2019-03-19T23:59:38.168Z,5.90
